Time;durP1;ratioP1;P1;durP2;ratioP2;P2;SDS_P1;SDS_P2;PMS_P1;PMS_P2;Temp;Humidity;BMP_temperature;BMP_pressure;BME280_temperature;BME280_humidity;BME280_pressure;Samples;Min_cycle;Max_cycle;Signal;HPM_P1;HPM_P2
2021/09/11 00:01:00;;;;;;;8.82;4.35;;;;;;;29.64;37.06;96775.84;4983926;28;20042;-31
2021/09/11 00:03:26;;;;;;;8.88;4.30;;;;;;;29.63;36.85;96776.78;4983532;28;20033;-29
2021/09/11 00:05:51;;;;;;;7.22;4.32;;;;;;;29.64;37.06;96775.00;4984998;28;20516;-29
2021/09/11 00:08:17;;;;;;;9.85;4.13;;;;;;;29.63;36.83;96768.84;4983078;28;20678;-29
2021/09/11 00:10:42;;;;;;;11.48;4.50;;;;;;;29.63;36.90;96763.56;4983290;28;20029;-29
2021/09/11 00:13:07;;;;;;;12.73;4.55;;;;;;;29.64;36.86;96765.28;4997402;28;20872;-29
2021/09/11 00:15:33;;;;;;;9.00;4.20;;;;;;;29.62;36.86;96759.25;4985841;28;20097;-30
2021/09/11 00:17:59;;;;;;;7.53;4.10;;;;;;;29.63;36.85;96763.56;4978262;28;20121;-30
2021/09/11 00:20:25;;;;;;;10.95;4.35;;;;;;;29.63;36.74;96763.56;4978632;28;20030;-28
2021/09/11 00:22:50;;;;;;;8.38;4.05;;;;;;;29.63;36.67;96763.56;4983612;28;20034;-30
2021/09/11 00:25:15;;;;;;;7.57;3.90;;;;;;;29.62;36.76;96761.03;4981281;28;20038;-30
2021/09/11 00:27:41;;;;;;;7.40;4.20;;;;;;;29.63;37.06;96768.03;4983059;28;20022;-31
2021/09/11 00:30:06;;;;;;;9.65;4.00;;;;;;;29.60;36.88;96764.63;4978679;28;20021;-30
2021/09/11 00:32:32;;;;;;;8.60;4.15;;;;;;;29.62;36.99;96767.19;4981396;28;20022;-30
2021/09/11 00:34:57;;;;;;;10.95;4.10;;;;;;;29.62;36.89;96764.53;4984585;28;20064;-31
2021/09/11 00:37:23;;;;;;;8.23;4.10;;;;;;;29.61;37.24;96765.50;4983804;28;20037;-29
2021/09/11 00:39:48;;;;;;;7.72;3.95;;;;;;;29.61;37.19;96768.13;4984981;28;20014;-29
2021/09/11 00:42:13;;;;;;;12.57;4.40;;;;;;;29.60;37.37;96769.91;4981689;28;20038;-29
2021/09/11 00:44:39;;;;;;;6.22;3.75;;;;;;;29.62;37.23;96771.59;4977797;28;20041;-30
2021/09/11 00:47:04;;;;;;;7.55;4.10;;;;;;;29.61;37.08;96770.78;4982165;28;20586;-28
2021/09/11 00:49:29;;;;;;;5.22;3.70;;;;;;;29.61;37.00;96776.06;4983614;28;20034;-29
2021/09/11 00:51:55;;;;;;;6.03;3.83;;;;;;;29.60;37.26;96779.66;4981740;28;20033;-30
2021/09/11 00:54:20;;;;;;;10.07;4.00;;;;;;;29.59;37.46;96776.16;4980460;28;20042;-29
2021/09/11 00:56:46;;;;;;;5.65;3.78;;;;;;;29.60;37.21;96774.38;4983305;28;20026;-29
2021/09/11 00:59:11;;;;;;;7.65;4.40;;;;;;;29.59;37.05;96777.94;4980479;28;20037;-33
2021/09/11 01:01:36;;;;;;;5.75;3.42;;;;;;;29.60;37.05;96774.38;4978875;28;20042;-29
2021/09/11 01:04:02;;;;;;;7.65;3.80;;;;;;;29.59;37.18;96773.50;4974308;28;20111;-30
2021/09/11 01:06:27;;;;;;;7.03;3.72;;;;;;;29.59;37.28;96777.94;4979347;28;20108;-33
2021/09/11 01:08:53;;;;;;;5.20;3.53;;;;;;;29.59;37.11;96778.78;4963644;28;20038;-29
2021/09/11 01:11:18;;;;;;;5.78;3.50;;;;;;;29.58;37.06;96776.25;4978027;28;20041;-29
2021/09/11 01:13:44;;;;;;;5.53;3.60;;;;;;;29.58;37.12;96781.53;4981258;28;20037;-30
2021/09/11 01:16:09;;;;;;;6.63;3.72;;;;;;;29.57;37.00;96770.16;4979561;28;20058;-29
2021/09/11 01:18:35;;;;;;;5.68;3.65;;;;;;;29.56;36.98;96768.44;4981112;28;20731;-29
2021/09/11 01:21:00;;;;;;;6.93;3.58;;;;;;;29.57;37.08;96767.50;4983029;28;20045;-29
2021/09/11 01:23:26;;;;;;;6.32;3.42;;;;;;;29.58;37.20;96776.25;4982159;28;20085;-30
2021/09/11 01:25:51;;;;;;;8.77;3.55;;;;;;;29.57;37.36;96770.16;4979023;28;20117;-29
2021/09/11 01:28:17;;;;;;;5.35;3.38;;;;;;;29.56;37.32;96773.72;4978840;28;20034;-31
2021/09/11 01:30:42;;;;;;;6.93;3.90;;;;;;;29.56;37.23;96767.63;4983708;28;20121;-28
2021/09/11 01:33:08;;;;;;;5.43;3.55;;;;;;;29.57;37.35;96779.84;4982550;28;20037;-29
2021/09/11 01:35:33;;;;;;;4.97;3.38;;;;;;;29.56;37.07;96767.63;4985852;28;20032;-28
2021/09/11 01:37:59;;;;;;;6.13;3.25;;;;;;;29.56;37.14;96772.91;4982414;28;20033;-30
2021/09/11 01:40:24;;;;;;;4.32;3.33;;;;;;;29.56;37.32;96767.63;4981511;28;20030;-31
2021/09/11 01:42:50;;;;;;;5.20;3.30;;;;;;;29.55;37.02;96777.31;4981141;28;20105;-30
2021/09/11 01:45:19;;;;;;;8.65;3.30;;;;;;;29.55;37.26;96771.19;4983047;28;20076;-30
2021/09/11 01:47:45;;;;;;;5.30;3.47;;;;;;;29.55;37.15;96776.47;4981545;28;20068;-30
2021/09/11 01:50:12;;;;;;;5.10;3.17;;;;;;;29.54;37.22;96775.63;5001133;28;20038;-29
2021/09/11 01:52:37;;;;;;;5.30;3.65;;;;;;;29.56;37.16;96783.47;4984411;28;20145;-29
2021/09/11 01:55:07;;;;;;;3.92;3.22;;;;;;;29.55;36.97;96776.47;4985435;28;20038;-29
2021/09/11 01:57:40;;;;;;;5.30;3.70;;;;;;;29.56;37.31;96783.47;4981282;28;20038;-30
2021/09/11 02:00:09;;;;;;;4.63;3.35;;;;;;;29.55;37.20;96787.88;4980791;28;20538;-30
2021/09/11 02:02:35;;;;;;;3.88;3.38;;;;;;;29.53;37.17;96781.88;4978869;28;20292;-30
2021/09/11 02:05:00;;;;;;;15.95;3.20;;;;;;;29.54;36.96;96786.19;4978528;28;20089;-31
2021/09/11 02:07:25;;;;;;;5.47;3.35;;;;;;;29.54;36.91;96787.97;4980387;28;20038;-30
2021/09/11 02:09:51;;;;;;;6.85;3.20;;;;;;;29.53;37.06;96787.16;4999448;28;20027;-29
2021/09/11 02:12:16;;;;;;;5.32;3.08;;;;;;;29.52;37.20;96781.97;4984186;28;20411;-31
2021/09/11 02:14:42;;;;;;;4.38;3.20;;;;;;;29.52;37.26;96784.63;4980926;28;20030;-31
2021/09/11 02:17:07;;;;;;;5.18;3.00;;;;;;;29.52;37.46;96781.97;4982575;28;20105;-29
2021/09/11 02:19:33;;;;;;;6.38;3.40;;;;;;;29.53;37.16;96779.22;4983160;28;20041;-28
2021/09/11 02:21:58;;;;;;;4.57;3.40;;;;;;;29.52;37.20;96781.97;4998538;28;20038;-29
2021/09/11 02:24:24;;;;;;;5.50;2.90;;;;;;;29.52;37.25;96776.69;4985261;28;20112;-31
2021/09/11 02:26:49;;;;;;;4.20;3.30;;;;;;;29.52;37.05;96787.25;4983573;28;20029;-31
2021/09/11 02:29:15;;;;;;;4.40;3.17;;;;;;;29.52;37.27;96780.16;4982920;28;20033;-30
2021/09/11 02:31:41;;;;;;;3.97;2.88;;;;;;;29.51;37.26;96781.13;4982743;28;20496;-30
2021/09/11 02:34:06;;;;;;;4.22;3.38;;;;;;;29.52;37.19;96780.16;4984221;28;20531;-28
2021/09/11 02:36:32;;;;;;;3.92;3.20;;;;;;;29.52;37.06;96781.97;4983683;28;20476;-29
2021/09/11 02:38:57;;;;;;;4.25;3.20;;;;;;;29.52;37.18;96776.69;4976210;28;20117;-30
2021/09/11 02:41:23;;;;;;;4.38;3.38;;;;;;;29.52;37.28;96781.97;4983346;28;20036;-29
2021/09/11 02:43:48;;;;;;;4.00;2.90;;;;;;;29.51;37.23;96778.47;4983327;28;20029;-29
2021/09/11 02:46:15;;;;;;;3.50;3.03;;;;;;;29.51;37.20;96785.50;4982123;28;20413;-31
2021/09/11 02:48:40;;;;;;;4.18;3.17;;;;;;;29.51;36.93;96786.41;4985020;28;20026;-31
2021/09/11 02:51:06;;;;;;;3.80;3.17;;;;;;;29.50;37.00;96787.31;4986711;28;20839;-29
2021/09/11 02:53:31;;;;;;;3.28;2.92;;;;;;;29.50;37.22;96784.69;4984536;28;20030;-29
2021/09/11 02:55:56;;;;;;;6.18;3.25;;;;;;;29.51;37.09;96785.50;4978898;28;20033;-29
2021/09/11 02:58:25;;;;;;;3.60;3.17;;;;;;;29.50;37.10;96783.81;4974987;28;20033;-32
2021/09/11 03:00:51;;;;;;;4.70;3.33;;;;;;;29.50;37.18;96786.47;4979100;28;20062;-30
2021/09/11 03:03:17;;;;;;;4.32;3.15;;;;;;;29.49;37.17;96788.28;4980933;28;20117;-29
2021/09/11 03:05:42;;;;;;;3.80;3.10;;;;;;;29.50;37.16;96789.09;4987049;28;20030;-30
2021/09/11 03:08:08;;;;;;;3.42;2.70;;;;;;;29.50;37.22;96778.53;4986570;28;20034;-30
2021/09/11 03:10:33;;;;;;;4.72;3.42;;;;;;;29.50;37.11;96778.53;4982088;28;20068;-29
2021/09/11 03:12:58;;;;;;;3.25;2.88;;;;;;;29.50;37.27;96783.81;4983576;28;20033;-29
2021/09/11 03:15:24;;;;;;;4.68;3.00;;;;;;;29.48;37.00;96782.16;4985124;28;20029;-29
2021/09/11 03:17:49;;;;;;;4.47;2.88;;;;;;;29.50;37.20;96781.19;4982149;28;20034;-29
2021/09/11 03:20:15;;;;;;;3.58;2.80;;;;;;;29.50;36.97;96773.28;4986890;28;20011;-29
2021/09/11 03:22:40;;;;;;;7.40;3.17;;;;;;;29.48;37.13;96776.88;4979432;28;20595;-30
2021/09/11 03:25:06;;;;;;;3.33;2.83;;;;;;;29.48;37.22;96776.88;4983632;28;20038;-30
2021/09/11 03:27:31;;;;;;;4.18;3.40;;;;;;;29.49;37.17;96777.72;4980643;28;20034;-30
2021/09/11 03:29:56;;;;;;;5.90;2.88;;;;;;;29.48;36.99;96773.38;4987202;28;20484;-28
2021/09/11 03:32:22;;;;;;;3.80;3.00;;;;;;;29.48;37.09;96779.50;4984729;28;20046;-29
2021/09/11 03:34:47;;;;;;;3.10;2.78;;;;;;;29.48;37.07;96779.50;4981333;28;20026;-30
2021/09/11 03:37:13;;;;;;;3.20;2.90;;;;;;;29.48;37.19;96779.50;4985070;28;20485;-28
2021/09/11 03:39:38;;;;;;;4.13;3.00;;;;;;;29.47;37.28;96777.81;4985084;28;20026;-30
2021/09/11 03:42:04;;;;;;;3.10;2.78;;;;;;;29.47;37.13;96775.19;4983199;28;20019;-29
2021/09/11 03:44:29;;;;;;;3.05;2.75;;;;;;;29.47;37.02;96775.19;4980802;28;20036;-29
2021/09/11 03:46:55;;;;;;;4.30;3.13;;;;;;;29.47;37.26;96780.47;4980827;28;20030;-29
2021/09/11 03:49:20;;;;;;;4.97;2.80;;;;;;;29.48;36.95;96787.41;4983804;28;20085;-31
2021/09/11 03:51:45;;;;;;;3.13;2.80;;;;;;;29.38;37.10;96767.91;4986245;28;20034;-29
2021/09/11 03:54:11;;;;;;;4.47;3.03;;;;;;;29.47;37.00;96775.19;4980024;28;20038;-31
2021/09/11 03:56:36;;;;;;;3.75;2.75;;;;;;;29.47;36.77;96785.75;4985732;28;20026;-29
2021/09/11 03:59:01;;;;;;;3.78;2.90;;;;;;;29.47;36.98;96785.75;4980504;28;21064;-29
2021/09/11 04:01:27;;;;;;;3.78;3.00;;;;;;;29.48;37.12;96786.56;4981564;28;20042;-28
2021/09/11 04:03:52;;;;;;;3.72;2.72;;;;;;;29.45;37.09;96781.53;4985144;28;20030;-31
2021/09/11 04:06:18;;;;;;;3.28;2.70;;;;;;;29.46;36.97;96784.06;4987430;28;20041;-29
2021/09/11 04:08:43;;;;;;;3.63;2.60;;;;;;;29.46;37.30;96786.69;4984335;28;20875;-29
2021/09/11 04:11:08;;;;;;;2.67;2.40;;;;;;;29.46;37.10;96786.69;4981978;28;20034;-29
2021/09/11 04:13:34;;;;;;;5.63;2.60;;;;;;;29.46;37.17;96789.34;4984390;28;20038;-29
2021/09/11 04:15:59;;;;;;;3.08;2.78;;;;;;;29.46;36.93;96785.84;4984909;28;20053;-29
2021/09/11 04:18:25;;;;;;;3.22;2.70;;;;;;;29.46;37.11;96789.34;4980206;28;20041;-30
2021/09/11 04:20:50;;;;;;;6.45;2.70;;;;;;;29.46;37.13;96784.06;4985376;28;20034;-30
2021/09/11 04:23:15;;;;;;;3.78;2.88;;;;;;;29.45;36.96;96784.97;4982248;28;20027;-31
2021/09/11 04:25:41;;;;;;;2.88;2.63;;;;;;;29.45;37.25;96792.09;4981428;28;20045;-30
2021/09/11 04:28:06;;;;;;;3.20;2.67;;;;;;;29.46;37.02;96793.75;4981560;28;20047;-28
2021/09/11 04:30:32;;;;;;;3.22;2.70;;;;;;;29.45;37.09;96790.25;4982753;28;20034;-30
2021/09/11 04:32:57;;;;;;;4.22;2.90;;;;;;;29.44;37.04;96791.22;4978435;28;20505;-30
2021/09/11 04:35:22;;;;;;;3.45;2.60;;;;;;;29.44;36.91;96785.94;4979708;28;20034;-29
2021/09/11 04:37:48;;;;;;;2.67;2.47;;;;;;;29.45;37.12;96786.81;4974545;28;20042;-30
2021/09/11 04:40:14;;;;;;;3.05;2.65;;;;;;;29.43;37.15;96786.91;4984909;28;20034;-29
2021/09/11 04:42:39;;;;;;;2.92;2.30;;;;;;;29.43;37.02;96789.53;5000169;28;20531;-29
2021/09/11 04:45:05;;;;;;;3.72;2.70;;;;;;;29.43;37.09;96794.81;4986171;28;20040;-29
2021/09/11 04:47:30;;;;;;;6.57;2.72;;;;;;;29.45;37.33;96797.38;4983597;28;21007;-29
2021/09/11 04:49:56;;;;;;;3.10;2.55;;;;;;;29.44;37.04;96796.50;4984486;28;20037;-29
2021/09/11 04:52:21;;;;;;;2.80;2.38;;;;;;;29.43;36.84;96789.53;4985269;28;20030;-30
2021/09/11 04:54:47;;;;;;;2.97;2.67;;;;;;;29.44;37.15;96790.38;4983120;28;20081;-30
2021/09/11 04:57:12;;;;;;;3.50;2.72;;;;;;;29.43;37.13;96800.09;4984524;28;20544;-31
2021/09/11 04:59:37;;;;;;;2.75;2.40;;;;;;;29.43;37.01;96794.81;4981495;28;20033;-32
2021/09/11 05:02:03;;;;;;;3.47;2.40;;;;;;;29.44;37.20;96795.66;4984251;28;20084;-30
2021/09/11 05:04:29;;;;;;;3.30;2.80;;;;;;;29.43;37.02;96796.59;4984364;28;20037;-30
2021/09/11 05:06:54;;;;;;;3.55;2.40;;;;;;;29.43;37.14;96805.38;4982273;28;20049;-29
2021/09/11 05:09:20;;;;;;;3.20;2.40;;;;;;;29.43;37.04;96810.66;4983778;28;20034;-31
2021/09/11 05:11:46;;;;;;;3.15;2.63;;;;;;;29.42;37.26;96814.25;4980693;28;20351;-31
2021/09/11 05:14:11;;;;;;;2.95;2.50;;;;;;;29.43;37.32;96812.44;4982336;28;20431;-31
2021/09/11 05:16:37;;;;;;;3.00;2.38;;;;;;;29.42;36.93;96808.97;4977924;28;20499;-29
2021/09/11 05:19:02;;;;;;;3.40;2.42;;;;;;;29.43;37.20;96817.72;4984766;28;20033;-30
2021/09/11 05:21:27;;;;;;;3.42;2.60;;;;;;;29.42;37.08;96819.53;4980914;28;20030;-28
2021/09/11 05:23:53;;;;;;;3.42;2.60;;;;;;;29.42;37.09;96822.19;4983010;28;20025;-30
2021/09/11 05:26:18;;;;;;;3.00;2.40;;;;;;;29.42;36.95;96819.53;4986477;28;20037;-29
2021/09/11 05:28:44;;;;;;;3.78;2.60;;;;;;;29.43;37.05;96815.09;4987189;28;20500;-30
2021/09/11 05:31:09;;;;;;;2.42;2.22;;;;;;;29.42;37.19;96816.91;4979028;28;23524;-30
2021/09/11 05:33:34;;;;;;;2.50;2.30;;;;;;;29.42;37.16;96818.69;4987281;28;20089;-29
2021/09/11 05:36:00;;;;;;;2.63;2.40;;;;;;;29.41;37.06;96817.81;4981932;28;20026;-30
2021/09/11 05:38:25;;;;;;;2.80;2.47;;;;;;;29.42;37.03;96818.69;4983687;28;20465;-28
2021/09/11 05:40:51;;;;;;;3.60;2.22;;;;;;;29.42;37.25;96818.69;4980317;28;20038;-29
2021/09/11 05:43:16;;;;;;;3.05;2.38;;;;;;;29.41;37.25;96820.47;4987168;28;20422;-31
2021/09/11 05:45:41;;;;;;;3.60;2.40;;;;;;;29.40;37.19;96826.69;4988045;28;20036;-30
2021/09/11 05:48:07;;;;;;;3.47;2.50;;;;;;;29.41;37.34;96831.03;4985741;28;20044;-30
2021/09/11 05:50:32;;;;;;;4.90;2.47;;;;;;;29.40;37.27;96821.41;4984925;28;20027;-29
2021/09/11 05:52:58;;;;;;;2.55;2.35;;;;;;;29.42;37.16;96831.88;4987950;28;20037;-29
2021/09/11 05:55:23;;;;;;;4.47;2.42;;;;;;;29.41;37.08;96828.38;4977889;28;20030;-28
2021/09/11 05:57:48;;;;;;;3.40;2.30;;;;;;;29.40;37.26;96821.41;4986380;28;20070;-29
2021/09/11 06:00:14;;;;;;;3.28;2.38;;;;;;;29.41;37.02;96827.56;4988261;28;20032;-29
2021/09/11 06:02:39;;;;;;;2.97;2.15;;;;;;;29.41;37.29;96828.38;4983552;28;20420;-29
2021/09/11 06:05:05;;;;;;;4.15;2.40;;;;;;;29.40;37.04;96826.69;4990926;28;20041;-29
2021/09/11 06:07:31;;;;;;;3.45;2.28;;;;;;;29.40;37.29;96831.16;4978362;28;20035;-29
2021/09/11 06:09:57;;;;;;;3.13;2.33;;;;;;;29.40;37.25;96828.50;4989039;28;20038;-29
2021/09/11 06:12:22;;;;;;;2.60;2.38;;;;;;;29.39;37.33;96830.28;4980607;28;20033;-29
2021/09/11 06:14:49;;;;;;;2.78;2.35;;;;;;;29.39;37.33;96834.72;4983448;28;20500;-29
2021/09/11 06:17:14;;;;;;;2.88;2.30;;;;;;;29.39;37.25;96832.06;4984716;28;20041;-29
2021/09/11 06:19:40;;;;;;;2.92;2.25;;;;;;;29.40;37.18;96847.00;4981889;28;20038;-29
2021/09/11 06:22:05;;;;;;;2.67;2.20;;;;;;;29.39;37.21;96835.56;4982699;28;20018;-31
2021/09/11 06:24:30;;;;;;;2.65;2.30;;;;;;;29.40;37.23;96841.72;4987690;28;20501;-29
2021/09/11 06:26:56;;;;;;;3.42;2.42;;;;;;;29.39;37.00;96834.72;4984476;28;20034;-30
2021/09/11 06:29:21;;;;;;;2.60;2.20;;;;;;;29.40;37.04;96837.25;4983122;28;20038;-30
2021/09/11 06:31:47;;;;;;;2.63;2.35;;;;;;;29.39;37.24;96834.72;4983457;28;20033;-29
2021/09/11 06:34:12;;;;;;;2.70;2.30;;;;;;;29.39;37.49;96840.84;4983686;28;20034;-30
2021/09/11 06:36:38;;;;;;;2.40;2.20;;;;;;;29.39;37.13;96835.56;4985295;28;20370;-29
2021/09/11 06:39:03;;;;;;;2.30;2.10;;;;;;;29.39;37.33;96846.13;4983742;28;20030;-30
2021/09/11 06:41:29;;;;;;;2.72;2.15;;;;;;;29.38;37.38;96839.16;4986993;28;20030;-30
2021/09/11 06:43:54;;;;;;;3.08;2.20;;;;;;;29.40;37.29;96842.53;4979440;28;20061;-30
2021/09/11 06:46:19;;;;;;;2.33;2.10;;;;;;;29.39;37.38;96840.00;4981500;28;20432;-28
2021/09/11 06:48:45;;;;;;;3.00;2.20;;;;;;;29.39;37.29;96840.84;4987203;28;20026;-30
2021/09/11 06:51:11;;;;;;;2.83;2.30;;;;;;;29.39;37.13;96835.56;4981278;28;20029;-29
2021/09/11 06:53:36;;;;;;;2.95;2.25;;;;;;;29.40;37.36;96839.91;4981850;28;20594;-31
2021/09/11 06:56:02;;;;;;;3.45;2.47;;;;;;;29.39;37.16;96835.56;4983922;28;20030;-29
2021/09/11 06:58:27;;;;;;;4.90;2.70;;;;;;;29.38;37.39;96839.16;4980031;28;20117;-28
2021/09/11 07:00:53;;;;;;;16.27;4.43;;;;;;;29.39;37.18;96840.84;4983351;28;20026;-29
2021/09/11 07:03:18;;;;;;;12.82;5.32;;;;;;;29.39;37.31;96840.84;4978092;28;20120;-29
2021/09/11 07:05:43;;;;;;;8.15;4.63;;;;;;;29.38;37.39;96831.25;4977871;28;20038;-29
2021/09/11 07:08:09;;;;;;;8.50;3.50;;;;;;;29.39;37.35;96829.44;4977617;28;20069;-29
2021/09/11 07:10:34;;;;;;;7.50;4.28;;;;;;;29.40;37.48;96837.25;4978064;28;20039;-28
2021/09/11 07:12:59;;;;;;;9.93;4.18;;;;;;;29.40;37.70;96847.81;4975515;28;20046;-29
2021/09/11 07:15:25;;;;;;;9.68;3.67;;;;;;;29.40;37.68;96852.28;4977879;28;20026;-30
2021/09/11 07:17:52;;;;;;;9.23;3.50;;;;;;;29.39;37.78;96848.78;4972801;28;20431;-31
2021/09/11 07:20:17;;;;;;;8.60;3.63;;;;;;;29.40;37.87;96852.28;4976426;28;20150;-31
2021/09/11 07:22:42;;;;;;;6.60;3.38;;;;;;;29.39;37.68;96856.69;4982527;28;20034;-29
2021/09/11 07:25:08;;;;;;;4.88;3.20;;;;;;;29.39;37.68;96855.84;4979198;28;20089;-29
2021/09/11 07:27:34;;;;;;;4.97;3.10;;;;;;;29.38;37.55;96857.66;4979344;28;20038;-29
2021/09/11 07:29:59;;;;;;;8.85;3.30;;;;;;;29.36;37.51;96854.25;4976382;28;20037;-29
2021/09/11 07:32:26;;;;;;;6.90;3.53;;;;;;;29.35;37.52;96863.13;4978433;28;20042;-31
2021/09/11 07:34:51;;;;;;;10.02;3.05;;;;;;;29.35;37.60;96855.19;4974527;28;20398;-29
2021/09/11 07:37:17;;;;;;;4.80;3.13;;;;;;;29.34;37.50;96858.81;4975959;28;20045;-29
2021/09/11 07:39:42;;;;;;;8.52;3.58;;;;;;;29.35;37.69;96860.47;4975131;28;20034;-29
2021/09/11 07:42:07;;;;;;;5.70;3.40;;;;;;;29.34;37.50;96861.44;4976664;28;20030;-30
2021/09/11 07:44:33;;;;;;;4.97;2.88;;;;;;;29.36;37.47;96862.16;4975110;28;20042;-29
2021/09/11 07:46:58;;;;;;;6.28;3.60;;;;;;;29.36;37.81;96867.44;4974234;28;20065;-29
2021/09/11 07:49:24;;;;;;;5.25;3.20;;;;;;;29.36;37.57;96867.44;4980766;28;20037;-28
2021/09/11 07:51:50;;;;;;;4.85;2.97;;;;;;;29.36;37.71;96872.72;4975737;28;20038;-28
2021/09/11 07:54:16;;;;;;;8.77;3.30;;;;;;;29.35;37.79;96868.41;4972351;28;21726;-28
2021/09/11 07:56:41;;;;;;;5.55;3.30;;;;;;;29.31;37.89;96864.28;4971112;28;20121;-29
2021/09/11 07:59:07;;;;;;;5.03;3.40;;;;;;;29.28;37.98;96865.31;4976714;28;20030;-28
2021/09/11 08:01:32;;;;;;;4.82;2.92;;;;;;;29.23;37.96;96864.78;4976592;28;20038;-30
2021/09/11 08:03:58;;;;;;;4.60;3.25;;;;;;;29.19;37.85;96864.16;4976172;28;20030;-30
2021/09/11 08:06:23;;;;;;;5.97;3.10;;;;;;;29.13;38.11;96867.19;4975977;28;20484;-29
2021/09/11 08:08:48;;;;;;;3.30;2.70;;;;;;;29.09;38.01;96870.97;4976937;28;20895;-30
2021/09/11 08:11:15;;;;;;;5.78;3.08;;;;;;;29.05;38.11;96870.34;4974141;28;20035;-29
2021/09/11 08:13:42;;;;;;;3.33;2.55;;;;;;;29.00;38.40;96876.84;4975187;28;20038;-31
2021/09/11 08:16:07;;;;;;;3.45;2.17;;;;;;;28.97;38.20;96877.03;4974297;28;20452;-31
2021/09/11 08:18:32;;;;;;;5.20;2.63;;;;;;;28.93;38.30;96871.13;4983780;28;20042;-30
2021/09/11 08:20:58;;;;;;;3.63;2.90;;;;;;;28.90;38.43;96874.81;4975433;28;20022;-29
2021/09/11 08:23:23;;;;;;;4.50;3.15;;;;;;;28.87;38.15;96867.06;4974947;28;20030;-29
2021/09/11 08:25:50;;;;;;;5.15;3.10;;;;;;;28.82;38.18;96869.16;4981178;28;20022;-30
2021/09/11 08:28:15;;;;;;;5.32;2.97;;;;;;;28.76;38.30;96880.94;4975249;28;20029;-28
2021/09/11 08:30:41;;;;;;;6.90;3.05;;;;;;;28.71;38.47;96885.66;4965165;28;20346;-28
2021/09/11 08:33:06;;;;;;;5.25;2.90;;;;;;;28.67;38.71;96887.66;4984280;28;20018;-29
2021/09/11 08:35:32;;;;;;;3.72;2.90;;;;;;;28.62;38.60;96881.84;4987942;28;20939;-30
2021/09/11 08:37:57;;;;;;;4.88;2.80;;;;;;;28.58;38.55;96880.34;4980369;28;20030;-27
2021/09/11 08:40:23;;;;;;;4.00;2.75;;;;;;;28.53;38.76;96880.63;4984128;28;20476;-29
2021/09/11 08:42:48;;;;;;;4.95;2.63;;;;;;;28.52;38.92;96878.06;4981118;28;20061;-32
2021/09/11 08:45:14;;;;;;;4.50;2.92;;;;;;;28.50;38.76;96874.69;4977493;28;20037;-28
2021/09/11 08:47:46;;;;;;;4.72;2.90;;;;;;;28.48;38.63;96876.56;4974131;28;20038;-29
2021/09/11 08:50:13;;;;;;;4.30;2.10;;;;;;;28.47;38.22;96874.88;4973973;28;20066;-29
2021/09/11 08:52:46;;;;;;;3.75;2.63;;;;;;;28.45;38.21;96877.63;4972831;28;20079;-30
2021/09/11 08:55:11;;;;;;;2.92;2.20;;;;;;;28.45;37.92;96882.06;4976397;28;20096;-29
2021/09/11 08:57:37;;;;;;;3.08;2.08;;;;;;;28.40;38.05;96877.91;4973532;28;20029;-29
2021/09/11 09:00:07;;;;;;;4.63;2.50;;;;;;;28.41;37.91;96876.97;4976687;28;20031;-30
2021/09/11 09:02:32;;;;;;;4.18;2.80;;;;;;;28.38;38.19;96874.50;4972389;28;20026;-29
2021/09/11 09:04:59;;;;;;;3.88;2.53;;;;;;;28.37;38.22;96874.63;4976688;28;20033;-31
2021/09/11 09:07:40;;;;;;;5.30;3.03;;;;;;;28.37;38.46;96864.09;4976728;28;20180;-29
2021/09/11 09:10:06;;;;;;;4.65;2.50;;;;;;;28.37;38.51;96877.28;4974559;28;20582;-28
2021/09/11 09:12:33;;;;;;;2.90;2.05;;;;;;;28.36;38.41;96871.16;4975721;28;20676;-32
2021/09/11 09:15:04;;;;;;;6.20;2.60;;;;;;;28.37;38.37;96874.63;4970272;28;20523;-29
2021/09/11 09:17:48;;;;;;;3.92;2.33;;;;;;;28.37;38.40;96875.47;4972680;28;20030;-29
2021/09/11 09:20:20;;;;;;;7.78;2.40;;;;;;;28.38;38.52;96871.88;4973637;28;20041;-29
2021/09/11 09:22:50;;;;;;;7.85;2.70;;;;;;;28.41;38.72;96871.69;4967058;28;20042;-29
2021/09/11 09:25:23;;;;;;;7.10;2.50;;;;;;;28.46;38.47;96862.66;4968578;28;20034;-30
2021/09/11 09:27:53;;;;;;;8.50;2.70;;;;;;;28.49;38.52;96867.75;4969166;28;20233;-29
2021/09/11 09:30:20;;;;;;;12.55;3.10;;;;;;;28.52;38.64;96862.25;4964065;28;20096;-33
2021/09/11 09:32:50;;;;;;;6.45;2.90;;;;;;;28.56;38.48;96869.03;4969672;28;20452;-30
2021/09/11 09:35:17;;;;;;;9.07;3.10;;;;;;;28.59;38.32;96860.94;4967427;28;20096;-30
2021/09/11 09:37:53;;;;;;;7.57;2.80;;;;;;;28.64;38.49;96852.75;4971029;28;20029;-29
2021/09/11 09:40:32;;;;;;;6.88;2.85;;;;;;;28.67;38.34;96858.66;4968857;28;20042;-28
2021/09/11 09:42:57;;;;;;;6.43;2.90;;;;;;;28.69;38.33;96851.47;4971444;28;20022;-28
2021/09/11 09:45:30;;;;;;;7.25;2.83;;;;;;;28.74;38.41;96851.19;4974238;28;20609;-28
2021/09/11 09:48:03;;;;;;;8.70;3.08;;;;;;;28.78;38.39;96857.97;4979613;28;20030;-29
2021/09/11 09:50:30;;;;;;;6.65;2.80;;;;;;;28.80;38.40;96856.06;4978672;28;20590;-29
2021/09/11 09:52:55;;;;;;;6.55;3.08;;;;;;;28.84;38.35;96856.72;4967477;28;20074;-29
2021/09/11 09:55:20;;;;;;;8.82;2.97;;;;;;;28.86;38.24;96853.97;4971491;28;20044;-28
2021/09/11 09:57:47;;;;;;;11.00;3.30;;;;;;;28.89;38.09;96849.38;4970512;28;20145;-30
2021/09/11 10:00:13;;;;;;;7.63;2.92;;;;;;;28.90;38.36;96845.81;4972832;28;20520;-30
2021/09/11 10:02:39;;;;;;;5.63;2.40;;;;;;;28.94;38.33;96846.44;4978004;28;20032;-29
2021/09/11 10:05:05;;;;;;;8.90;2.90;;;;;;;28.94;38.01;96847.28;4971163;28;20037;-28
2021/09/11 10:07:30;;;;;;;5.57;2.97;;;;;;;28.98;38.25;96847.09;4950433;28;20049;-31
2021/09/11 10:09:56;;;;;;;5.70;2.50;;;;;;;29.00;38.24;96839.91;4972412;28;20034;-29
2021/09/11 10:12:40;;;;;;;5.28;2.50;;;;;;;29.02;38.08;96838.03;4981284;28;20026;-29
2021/09/11 10:15:22;;;;;;;4.05;2.38;;;;;;;29.05;38.11;96840.47;4977918;28;20036;-29
2021/09/11 10:17:47;;;;;;;;;;;;;;;29.06;37.98;96834.25;4979832;28;20204;-30
2021/09/11 10:20:13;;;;;;;5.35;2.90;;;;;;;29.08;38.12;96834.97;4982143;28;19918;-31
2021/09/11 10:22:43;;;;;;;6.85;2.92;;;;;;;29.11;38.14;96833.94;4978539;28;20026;-28
2021/09/11 10:25:08;;;;;;;5.90;2.65;;;;;;;29.11;37.95;96840.06;4977563;28;20030;-28
2021/09/11 10:27:38;;;;;;;4.43;2.53;;;;;;;29.13;38.10;96835.53;4984679;28;20033;-30
2021/09/11 10:30:13;;;;;;;5.30;2.72;;;;;;;29.14;38.04;96842.47;4976064;28;20037;-29
2021/09/11 10:32:40;;;;;;;5.88;2.42;;;;;;;29.18;38.05;96848.41;4991180;28;20034;-27
2021/09/11 10:35:06;;;;;;;5.28;2.63;;;;;;;29.18;38.05;96854.53;4974385;28;20485;-29
2021/09/11 10:37:31;;;;;;;13.25;3.30;;;;;;;29.20;38.10;96860.56;4974343;28;20034;-29
2021/09/11 10:40:15;;;;;;;6.03;2.75;;;;;;;29.21;38.24;96864.88;4978405;28;20383;-29
2021/09/11 10:43:01;;;;;;;7.05;2.90;;;;;;;29.23;37.91;96850.75;4969301;28;20054;-29
2021/09/11 10:46:01;;;;;;;4.72;2.78;;;;;;;29.23;38.22;96845.47;4979270;28;20034;-30
2021/09/11 10:48:45;;;;;;;5.20;2.60;;;;;;;29.23;38.35;96845.47;4938127;28;20058;-34
2021/09/11 10:51:27;;;;;;;6.25;2.63;;;;;;;29.25;38.16;96848.84;4980629;28;20033;-28
2021/09/11 10:54:11;;;;;;;6.32;2.80;;;;;;;29.24;38.12;96842.72;4977159;28;20424;-29
2021/09/11 10:56:46;;;;;;;4.70;2.38;;;;;;;29.27;38.29;96849.59;4974134;28;20503;-28
2021/09/11 10:59:18;;;;;;;6.20;2.50;;;;;;;29.26;38.50;96861.09;4973307;28;20057;-29
2021/09/11 11:01:53;;;;;;;5.43;2.47;;;;;;;29.27;38.41;96849.59;4971898;28;20034;-29
2021/09/11 11:04:23;;;;;;;4.45;2.50;;;;;;;29.28;38.37;96854.78;4975938;28;20030;-28
2021/09/11 11:06:53;;;;;;;5.28;2.63;;;;;;;29.28;38.51;96848.63;4983866;28;20115;-30
2021/09/11 11:09:22;;;;;;;4.60;2.30;;;;;;;29.28;38.68;96851.28;4984383;28;20323;-30
2021/09/11 11:11:48;;;;;;;7.47;2.30;;;;;;;29.30;38.90;96858.13;4984391;28;20357;-28
2021/09/11 11:14:13;;;;;;;5.20;2.58;;;;;;;29.31;38.78;96861.63;4982771;28;20034;-29
2021/09/11 11:16:49;;;;;;;7.82;2.60;;;;;;;29.33;38.94;96872.94;4963151;28;20476;-30
2021/09/11 11:19:26;;;;;;;5.80;2.40;;;;;;;29.32;39.05;96865.97;4961470;28;20033;-28
2021/09/11 11:21:56;;;;;;;5.78;2.30;;;;;;;29.33;38.77;96857.13;4980704;28;20056;-29
2021/09/11 11:24:22;;;;;;;5.30;2.45;;;;;;;29.33;39.15;96857.13;4980200;28;20092;-28
2021/09/11 11:26:47;;;;;;;3.75;2.28;;;;;;;29.33;38.94;96857.94;4988200;28;20026;-27
2021/09/11 11:29:15;;;;;;;5.28;2.40;;;;;;;29.34;38.97;96858.81;4982457;28;20035;-29
2021/09/11 11:31:42;;;;;;;6.30;2.25;;;;;;;29.34;38.77;96858.81;4983938;28;20065;-28